Airport ICAO


10:26 UTC

3°C

Clear skies


An affordable passengers' Moving Map for your aircraft. Made for the iPad and the iPhone
More information here

EGKB Biggin Hill


London UNITED KINGDOM   VFR CAVOK


METAR EGKB 181020Z 15007KT CAVOK 03/M01 Q1017 0h06min

TAF EGKB 180800Z 1809/1818 VRB03KT 9999 FEW035 BECMG 1810/1812 17010KT 2h26min





NOTAMS

OPEN